Aeroporto :
LOGIN :

Iscrizione | Disclaimer

   EN    FR    IT 

 










Sommario :    VFR   VFR Marginale   IFR   IFR Intensivo   IFR Molto Intensivo
Visibilità : 
Base nubi : 
>= 8 km
>= 3000ft
5 / 8 km
1000 / 3000 ft
1500m / 5 km
500 / 1000 ft
800 / 1500m
200 / 500 ft
< 800m
< 200 ft
Simboli :   Temporali  Nebbia  Neve Forte  Precipitazioni Forti  Vento > 20 kt
SIGMETs :   Varie  Temporali  Ghiacco  Turbolenza  Onda orograficha  Ceneri Vulcaniche






- Altitudine del aeroporto : 22 ft
- Codice IATA : LDY


EGAE - Londonderry Eglington

ULTIMO METAR :
  • 231120Z 28020KT 9999 VCSH FEW027 SCT049 08/01 Q1013

METARs OBSOLETI :
  • 231050Z 26016KT 9999 VCSH FEW027 07/01 Q1012
  • 231020Z 27017KT 9999 FEW027 06/01 Q1012
  • 230950Z 26014KT 9999 FEW027 06/02 Q1011
  • 230920Z 26012KT 9999 FEW027 04/02 Q1010

TAF TAF EGAE
Valido dal 23 a 12 ore il 23 a 21 ore UTC


231057Z 2312/2321 27014KT 9999 SCT030
TEMPO 2312/2316 28018G28KT
PROB30
TEMPO 2312/2321 8000 SHRA



MetMap, La meteo Aeronautica in un colpo d'occhio ! - Copyright ORBIFLY Dicembre 2007 - Disclaimer

ORBIFLY MET'MAP TEAM :

Programmazione e sviluppo : Alexandra Zaïnal
Concezione : Baudouin d'Aumeries
Aiuto per la programmazione : Marc-Olivier Méhu
Supporto tecnico e logistico : Manuel Goepfert
Aiuto per la traduzione : Arnaldo La Scala

Contatto : metmap@orbifly.com




FONTI E CREDITI :

   NOAA